Time;durP1;ratioP1;P1;durP2;ratioP2;P2;SDS_P1;SDS_P2;PMS_P1;PMS_P2;Temp;Humidity;BMP_temperature;BMP_pressure;BME280_temperature;BME280_humidity;BME280_pressure;Samples;Min_cycle;Max_cycle;Signal;HPM_P1;HPM_P2
2022/04/14 00:00:06;;;;;;;11.27;6.63;;;11.40;99.90;;;;;;5029901;28;20033;-70
2022/04/14 00:02:32;;;;;;;11.88;6.57;;;11.30;99.90;;;;;;5028025;28;20093;-70
2022/04/14 00:04:58;;;;;;;12.77;7.20;;;11.40;99.90;;;;;;5028016;28;20049;-70
2022/04/14 00:07:24;;;;;;;11.80;7.25;;;11.30;99.90;;;;;;5030158;28;20042;-70
2022/04/14 00:09:49;;;;;;;11.88;7.10;;;11.30;99.90;;;;;;5029128;28;20077;-69
2022/04/14 00:12:15;;;;;;;11.05;6.40;;;11.30;99.90;;;;;;5026904;28;20072;-71
2022/04/14 00:14:41;;;;;;;10.23;6.82;;;11.20;99.90;;;;;;5023744;28;20045;-70
2022/04/14 00:17:07;;;;;;;9.52;7.20;;;11.20;99.90;;;;;;5024008;28;20044;-70
2022/04/14 00:19:32;;;;;;;9.15;6.38;;;11.20;99.90;;;;;;5021983;28;20045;-70
2022/04/14 00:21:58;;;;;;;9.23;6.10;;;11.20;99.90;;;;;;5024127;28;20068;-70
2022/04/14 00:24:24;;;;;;;10.32;6.07;;;11.10;99.90;;;;;;5027305;28;20085;-70
2022/04/14 00:26:50;;;;;;;11.13;6.15;;;11.10;99.90;;;;;;5023953;28;20049;-70
2022/04/14 00:29:15;;;;;;;9.30;6.28;;;11.10;99.90;;;;;;5025362;28;20071;-70
2022/04/14 00:31:41;;;;;;;10.20;6.55;;;11.00;99.90;;;;;;5023150;28;20037;-70
2022/04/14 00:34:06;;;;;;;10.77;6.32;;;11.00;99.90;;;;;;5024603;28;20426;-70
2022/04/14 00:36:35;;;;;;;8.80;5.88;;;10.90;99.90;;;;;;5007882;28;20080;-70
2022/04/14 00:39:01;;;;;;;14.25;7.28;;;10.90;99.90;;;;;;5028364;28;20040;-70
2022/04/14 00:41:27;;;;;;;9.85;6.82;;;10.90;99.90;;;;;;5028679;28;20037;-70
2022/04/14 00:43:54;;;;;;;10.82;7.05;;;10.90;99.90;;;;;;5031908;28;20068;-70
2022/04/14 00:46:20;;;;;;;10.05;7.13;;;10.80;99.90;;;;;;5026154;28;20061;-70
2022/04/14 00:48:48;;;;;;;10.32;7.85;;;10.80;99.90;;;;;;5027216;28;20064;-70
2022/04/14 00:51:16;;;;;;;9.88;7.82;;;10.80;99.90;;;;;;5028358;28;20061;-70
2022/04/14 00:53:42;;;;;;;11.73;7.95;;;10.70;99.90;;;;;;5027362;28;20034;-70
2022/04/14 00:56:08;;;;;;;12.68;7.68;;;10.70;99.90;;;;;;5026468;28;20049;-70
2022/04/14 00:58:34;;;;;;;13.68;8.85;;;10.70;99.90;;;;;;5027770;28;20132;-70
2022/04/14 01:01:01;;;;;;;11.10;8.50;;;10.70;99.90;;;;;;5029897;28;20076;-70
2022/04/14 01:03:27;;;;;;;15.25;9.65;;;10.60;99.90;;;;;;5028653;28;20037;-70
2022/04/14 01:05:53;;;;;;;13.10;9.13;;;10.60;99.90;;;;;;5028351;28;20554;-70
2022/04/14 01:08:19;;;;;;;14.48;9.15;;;10.60;99.90;;;;;;5028755;28;20381;-70
2022/04/14 01:10:48;;;;;;;14.38;9.23;;;10.60;99.90;;;;;;5026805;28;20053;-70
2022/04/14 01:13:20;;;;;;;13.65;9.93;;;10.50;99.90;;;;;;5023988;28;20045;-70
2022/04/14 01:15:46;;;;;;;13.65;8.95;;;10.50;99.90;;;;;;5027259;28;20045;-70
2022/04/14 01:18:12;;;;;;;13.23;9.85;;;10.50;99.90;;;;;;5026586;28;20029;-70
2022/04/14 01:20:42;;;;;;;15.98;9.57;;;10.40;99.90;;;;;;5027608;28;20046;-70
2022/04/14 01:23:10;;;;;;;15.10;10.98;;;10.40;99.90;;;;;;5025737;28;20037;-70
2022/04/14 01:25:36;;;;;;;13.00;9.95;;;10.40;99.90;;;;;;5023732;28;20111;-70
2022/04/14 01:28:03;;;;;;;11.98;9.80;;;10.40;99.90;;;;;;5026106;28;20045;-70
2022/04/14 01:30:29;;;;;;;13.95;9.90;;;10.30;99.90;;;;;;5031847;28;20046;-70
2022/04/14 01:32:55;;;;;;;12.27;10.77;;;10.30;99.90;;;;;;5017009;28;20044;-70
2022/04/14 01:35:21;;;;;;;16.10;10.80;;;10.20;99.90;;;;;;5028726;28;20053;-70
2022/04/14 01:37:47;;;;;;;13.20;10.00;;;10.20;99.90;;;;;;5023880;28;20057;-70
2022/04/14 01:40:13;;;;;;;12.82;10.27;;;10.20;99.90;;;;;;5026874;28;20049;-70
2022/04/14 01:42:39;;;;;;;14.40;10.98;;;10.20;99.90;;;;;;5010187;28;20397;-70
2022/04/14 01:45:10;;;;;;;18.95;12.80;;;10.10;99.90;;;;;;5026755;28;20362;-69
2022/04/14 01:47:44;;;;;;;15.57;13.00;;;10.10;99.90;;;;;;5025730;28;20100;-69
2022/04/14 01:50:15;;;;;;;21.30;14.03;;;10.10;99.90;;;;;;5021932;28;20045;-69
2022/04/14 01:52:44;;;;;;;18.08;15.23;;;10.10;99.90;;;;;;5028523;28;20164;-69
2022/04/14 01:55:10;;;;;;;19.58;14.85;;;10.20;99.90;;;;;;5025666;28;20121;-69
2022/04/14 01:57:36;;;;;;;20.23;15.45;;;10.20;99.90;;;;;;5025833;28;20128;-69
2022/04/14 02:00:06;;;;;;;16.38;14.40;;;10.20;99.90;;;;;;5026171;28;20052;-69
2022/04/14 02:02:31;;;;;;;21.95;15.48;;;10.20;99.90;;;;;;5025502;28;20080;-69
2022/04/14 02:04:57;;;;;;;19.48;14.35;;;10.10;99.90;;;;;;5024291;28;20168;-69
2022/04/14 02:07:23;;;;;;;19.05;15.23;;;10.10;99.90;;;;;;5024502;28;20033;-69
2022/04/14 02:09:48;;;;;;;18.08;15.18;;;10.10;99.90;;;;;;5026116;28;20030;-69
2022/04/14 02:12:14;;;;;;;16.52;14.38;;;10.00;99.90;;;;;;5024945;28;20062;-69
2022/04/14 02:14:41;;;;;;;21.20;16.98;;;10.00;99.90;;;;;;5025396;28;20084;-69
2022/04/14 02:17:07;;;;;;;19.73;15.82;;;10.00;99.90;;;;;;5025254;28;20041;-69
2022/04/14 02:19:33;;;;;;;17.40;14.75;;;10.00;99.90;;;;;;5025408;28;20037;-70
2022/04/14 02:21:58;;;;;;;22.38;16.73;;;10.00;99.90;;;;;;5025641;28;20037;-70
2022/04/14 02:24:25;;;;;;;21.33;16.98;;;9.90;99.90;;;;;;5023584;28;20045;-70
2022/04/14 02:26:51;;;;;;;19.13;15.98;;;9.90;99.90;;;;;;5025087;28;20513;-70
2022/04/14 02:29:17;;;;;;;19.20;15.98;;;9.90;99.90;;;;;;5024077;28;20065;-69
2022/04/14 02:31:43;;;;;;;25.55;17.20;;;9.90;99.90;;;;;;5024854;28;20511;-69
2022/04/14 02:34:08;;;;;;;19.67;16.08;;;9.80;99.90;;;;;;5026380;28;20124;-70
2022/04/14 02:36:34;;;;;;;19.95;16.17;;;9.80;99.90;;;;;;5026270;28;20168;-70
2022/04/14 02:39:00;;;;;;;22.10;16.75;;;9.70;99.90;;;;;;5026430;28;20034;-70
2022/04/14 02:41:25;;;;;;;21.42;16.50;;;9.70;99.90;;;;;;5010040;28;20092;-70
2022/04/14 02:43:51;;;;;;;18.15;16.08;;;9.70;99.90;;;;;;5024008;28;20481;-69
2022/04/14 02:46:17;;;;;;;20.50;16.35;;;9.70;99.90;;;;;;5024434;28;20160;-69
2022/04/14 02:48:42;;;;;;;17.60;14.40;;;9.60;99.90;;;;;;5025300;28;20049;-69
2022/04/14 02:51:08;;;;;;;18.95;15.10;;;9.60;99.90;;;;;;5026416;28;20526;-69
2022/04/14 02:53:34;;;;;;;24.30;16.92;;;9.50;99.90;;;;;;5025967;28;20052;-69
2022/04/14 02:55:59;;;;;;;19.33;17.08;;;9.50;99.90;;;;;;5024645;28;20049;-69
2022/04/14 02:58:25;;;;;;;21.02;16.55;;;9.50;99.90;;;;;;5025815;28;20041;-70
2022/04/14 03:00:51;;;;;;;20.45;16.15;;;9.40;99.90;;;;;;5036956;28;20115;-70
2022/04/14 03:03:17;;;;;;;21.00;17.63;;;9.40;99.90;;;;;;5025898;28;20038;-70
2022/04/14 03:05:43;;;;;;;25.02;20.80;;;9.40;99.90;;;;;;5025441;28;20088;-70
2022/04/14 03:08:09;;;;;;;24.73;20.17;;;9.40;99.90;;;;;;5025217;28;20485;-70
2022/04/14 03:10:35;;;;;;;28.33;20.20;;;9.40;99.90;;;;;;5024465;28;20088;-69
2022/04/14 03:13:01;;;;;;;23.48;20.02;;;9.40;99.90;;;;;;5023776;28;20065;-69
2022/04/14 03:15:26;;;;;;;21.88;19.52;;;9.40;99.90;;;;;;5024468;28;20029;-70
2022/04/14 03:17:53;;;;;;;25.63;21.30;;;9.40;99.90;;;;;;5025446;28;20520;-69
2022/04/14 03:20:19;;;;;;;28.48;21.63;;;9.40;99.90;;;;;;5025482;28;20053;-70
2022/04/14 03:22:45;;;;;;;28.42;21.77;;;9.40;99.90;;;;;;5025248;28;20045;-69
2022/04/14 03:25:13;;;;;;;27.90;21.40;;;9.40;99.90;;;;;;5030099;28;20041;-69
2022/04/14 03:27:39;;;;;;;23.98;21.25;;;9.40;99.90;;;;;;5024923;28;20132;-69
2022/04/14 03:30:08;;;;;;;30.23;23.15;;;9.40;99.90;;;;;;5024903;28;20115;-69
2022/04/14 03:32:45;;;;;;;26.92;22.17;;;9.40;99.90;;;;;;5008552;28;20045;-69
2022/04/14 03:35:11;;;;;;;29.02;22.70;;;9.40;99.90;;;;;;5025738;28;20048;-69
2022/04/14 03:37:38;;;;;;;32.20;23.35;;;9.40;99.90;;;;;;5024356;28;20099;-69
2022/04/14 03:40:05;;;;;;;28.08;23.42;;;9.30;99.90;;;;;;5024636;28;20482;-69
2022/04/14 03:42:31;;;;;;;26.70;22.10;;;9.40;99.90;;;;;;5007865;28;20033;-69
2022/04/14 03:44:58;;;;;;;31.25;23.48;;;9.30;99.90;;;;;;5024233;28;20037;-69
2022/04/14 03:47:24;;;;;;;28.42;21.75;;;9.30;99.90;;;;;;5023433;28;20737;-69
2022/04/14 03:49:50;;;;;;;25.67;21.52;;;9.30;99.90;;;;;;5025821;28;20461;-69
2022/04/14 03:52:16;;;;;;;28.60;23.67;;;9.20;99.90;;;;;;5024063;28;20042;-69
2022/04/14 03:54:42;;;;;;;27.73;22.20;;;9.20;99.90;;;;;;5023824;28;20057;-69
2022/04/14 03:57:07;;;;;;;29.15;22.40;;;9.10;99.90;;;;;;5020665;28;20050;-69
2022/04/14 03:59:33;;;;;;;27.58;22.52;;;9.10;99.90;;;;;;5024966;28;20393;-70
2022/04/14 04:01:59;;;;;;;31.25;23.95;;;9.10;99.90;;;;;;5024094;28;20056;-69
2022/04/14 04:04:24;;;;;;;25.80;21.40;;;9.00;99.90;;;;;;5025015;28;20145;-69
2022/04/14 04:06:50;;;;;;;25.15;22.15;;;9.00;99.90;;;;;;5023542;28;20049;-69
2022/04/14 04:09:16;;;;;;;24.20;20.75;;;8.90;99.90;;;;;;5025025;28;20036;-69
2022/04/14 04:11:41;;;;;;;25.67;21.23;;;8.90;99.90;;;;;;5023566;28;20033;-69
2022/04/14 04:14:07;;;;;;;30.65;21.83;;;8.80;99.90;;;;;;5026585;28;20156;-69
2022/04/14 04:16:33;;;;;;;30.08;22.38;;;8.70;99.90;;;;;;5022296;28;20060;-69
2022/04/14 04:18:59;;;;;;;21.98;18.70;;;8.70;99.90;;;;;;5023489;28;20049;-69
2022/04/14 04:21:26;;;;;;;28.98;23.00;;;8.60;99.90;;;;;;5013360;28;20393;-69
2022/04/14 04:23:52;;;;;;;26.08;22.58;;;8.60;99.90;;;;;;5021738;28;20090;-69
2022/04/14 04:26:18;;;;;;;25.75;21.27;;;8.50;99.90;;;;;;5031131;28;20080;-69
2022/04/14 04:28:44;;;;;;;24.73;20.45;;;8.40;99.90;;;;;;5005777;28;20046;-69
2022/04/14 04:31:10;;;;;;;25.50;20.90;;;8.50;99.90;;;;;;5023931;28;20088;-69
2022/04/14 04:33:36;;;;;;;27.02;22.42;;;8.30;99.90;;;;;;5026196;28;20116;-69
2022/04/14 04:36:01;;;;;;;29.98;23.27;;;8.30;99.90;;;;;;5025536;28;20130;-69
2022/04/14 04:38:27;;;;;;;26.27;20.75;;;8.30;99.90;;;;;;5024602;28;20033;-69
2022/04/14 04:40:55;;;;;;;28.35;22.50;;;8.20;99.90;;;;;;5025100;28;20046;-69
2022/04/14 04:43:20;;;;;;;29.17;23.52;;;8.10;99.90;;;;;;5023841;28;20524;-69
2022/04/14 04:45:46;;;;;;;24.63;21.23;;;8.10;99.90;;;;;;5023805;28;20037;-69
2022/04/14 04:48:12;;;;;;;29.25;23.35;;;8.10;99.90;;;;;;5025012;28;20056;-69
2022/04/14 04:50:37;;;;;;;33.75;26.10;;;8.00;99.90;;;;;;5007264;28;20119;-69
2022/04/14 04:53:04;;;;;;;29.65;23.60;;;8.00;99.90;;;;;;5025280;28;20034;-69
2022/04/14 04:55:30;;;;;;;32.20;25.30;;;8.00;99.90;;;;;;5040622;28;20489;-69
2022/04/14 04:57:56;;;;;;;34.45;25.70;;;8.00;99.90;;;;;;5024901;28;20098;-69
2022/04/14 05:00:22;;;;;;;34.67;25.90;;;8.00;99.90;;;;;;5022340;28;20053;-69
2022/04/14 05:02:48;;;;;;;26.92;23.23;;;8.00;99.90;;;;;;5022028;28;20044;-69
2022/04/14 05:05:13;;;;;;;29.02;21.90;;;7.90;99.90;;;;;;5023992;28;20110;-69
2022/04/14 05:07:39;;;;;;;26.38;22.75;;;7.90;99.90;;;;;;5009618;28;20484;-69
2022/04/14 05:10:05;;;;;;;31.05;24.90;;;7.90;99.90;;;;;;5025189;28;20128;-69
2022/04/14 05:12:31;;;;;;;31.85;25.67;;;7.90;99.90;;;;;;5022031;28;20038;-69
2022/04/14 05:14:57;;;;;;;33.80;24.73;;;7.80;99.90;;;;;;5024546;28;20040;-69
2022/04/14 05:17:22;;;;;;;36.70;27.50;;;7.90;99.90;;;;;;5022574;28;20147;-69
2022/04/14 05:19:48;;;;;;;34.28;26.50;;;7.90;99.90;;;;;;5024508;28;20080;-69
2022/04/14 05:22:14;;;;;;;36.15;28.35;;;8.00;99.90;;;;;;5022165;28;20049;-69
2022/04/14 05:24:39;;;;;;;36.85;28.52;;;7.90;99.90;;;;;;5029927;28;20096;-69
2022/04/14 05:27:05;;;;;;;36.00;27.80;;;8.00;99.90;;;;;;5030086;28;20099;-69
2022/04/14 05:29:31;;;;;;;34.70;27.33;;;8.00;99.90;;;;;;5027181;28;20049;-69
2022/04/14 05:31:56;;;;;;;34.10;26.55;;;8.10;99.90;;;;;;5027000;28;20120;-69
2022/04/14 05:34:22;;;;;;;33.47;26.95;;;8.10;99.90;;;;;;5023927;28;20128;-69
2022/04/14 05:36:48;;;;;;;37.95;27.80;;;8.10;99.90;;;;;;5027654;28;20068;-69
2022/04/14 05:39:14;;;;;;;38.25;29.88;;;8.20;99.90;;;;;;5027334;28;20064;-69
2022/04/14 05:41:39;;;;;;;38.47;29.95;;;8.30;99.90;;;;;;5026021;28;20075;-69
2022/04/14 05:44:05;;;;;;;38.40;28.50;;;8.50;99.90;;;;;;5026762;28;20065;-69
2022/04/14 05:46:31;;;;;;;34.38;27.70;;;8.60;99.90;;;;;;5026233;28;20044;-69
2022/04/14 05:48:56;;;;;;;33.05;26.02;;;8.70;99.90;;;;;;5024201;28;20056;-68
2022/04/14 05:51:22;;;;;;;33.75;27.23;;;8.90;99.90;;;;;;5029202;28;20096;-69
2022/04/14 05:53:51;;;;;;;33.80;26.95;;;9.00;99.90;;;;;;5027549;28;20127;-69
2022/04/14 05:56:17;;;;;;;35.30;29.20;;;9.20;99.90;;;;;;5028215;28;20184;-69
2022/04/14 05:58:43;;;;;;;39.40;29.85;;;9.30;99.90;;;;;;5028697;28;20606;-69
2022/04/14 06:01:09;;;;;;;38.60;32.45;;;9.50;99.90;;;;;;5029126;28;20056;-69
2022/04/14 06:03:35;;;;;;;42.42;31.98;;;9.60;99.90;;;;;;5028039;28;20461;-69
2022/04/14 06:06:01;;;;;;;37.58;30.77;;;9.80;99.90;;;;;;5032475;28;20041;-69
2022/04/14 06:08:27;;;;;;;39.38;30.77;;;9.90;99.90;;;;;;5030627;28;20695;-69
2022/04/14 06:10:53;;;;;;;33.75;28.60;;;10.00;99.90;;;;;;5031530;28;20420;-70
2022/04/14 06:13:19;;;;;;;35.33;28.88;;;10.20;99.90;;;;;;5031015;28;20041;-69
2022/04/14 06:15:44;;;;;;;35.50;29.25;;;10.30;99.90;;;;;;5028209;28;20042;-69
2022/04/14 06:18:10;;;;;;;36.40;30.33;;;10.40;99.90;;;;;;5029520;28;20033;-69
2022/04/14 06:20:36;;;;;;;35.75;28.10;;;10.50;99.90;;;;;;5031500;28;20131;-70
2022/04/14 06:23:02;;;;;;;32.20;27.77;;;10.70;99.90;;;;;;5030331;28;20085;-70
2022/04/14 06:25:28;;;;;;;33.45;28.05;;;10.80;99.90;;;;;;5031464;28;20553;-70
2022/04/14 06:27:57;;;;;;;38.63;29.88;;;10.90;99.90;;;;;;5032259;28;20125;-70
2022/04/14 06:30:23;;;;;;;32.28;28.23;;;10.90;99.90;;;;;;5028287;28;20045;-70
2022/04/14 06:32:59;;;;;;;35.00;28.77;;;11.00;99.90;;;;;;5046223;28;20041;-70
2022/04/14 06:35:24;;;;;;;32.72;27.67;;;11.10;99.90;;;;;;5029711;28;20092;-70
2022/04/14 06:37:51;;;;;;;37.17;30.08;;;11.30;99.90;;;;;;5030765;28;20505;-70
2022/04/14 06:40:16;;;;;;;35.13;28.02;;;11.40;99.90;;;;;;5027526;28;20041;-70
2022/04/14 06:42:42;;;;;;;34.10;28.30;;;11.60;99.90;;;;;;5029550;28;20056;-70
2022/04/14 06:45:08;;;;;;;32.20;28.67;;;11.80;99.90;;;;;;5028696;28;20096;-70
2022/04/14 06:47:34;;;;;;;32.08;27.60;;;11.80;99.90;;;;;;5028780;28;20056;-70
2022/04/14 06:49:59;;;;;;;36.83;28.83;;;12.00;99.90;;;;;;5030006;28;20045;-70
2022/04/14 06:52:25;;;;;;;33.65;26.55;;;12.10;99.90;;;;;;5029520;28;20040;-70
2022/04/14 06:54:51;;;;;;;32.97;28.38;;;12.20;99.90;;;;;;5030442;28;20050;-70
2022/04/14 06:57:18;;;;;;;33.72;28.35;;;12.40;99.90;;;;;;5029102;28;20358;-70
2022/04/14 06:59:43;;;;;;;31.83;27.25;;;12.40;99.90;;;;;;5027736;28;20128;-70
2022/04/14 07:02:09;;;;;;;33.40;27.75;;;12.60;99.90;;;;;;5029445;28;20576;-70
2022/04/14 07:04:35;;;;;;;32.15;27.70;;;12.80;99.90;;;;;;5028077;28;20045;-71
2022/04/14 07:07:01;;;;;;;34.38;28.40;;;13.20;99.90;;;;;;5030436;28;20596;-71
2022/04/14 07:09:31;;;;;;;32.70;26.63;;;13.70;99.90;;;;;;5027818;28;20049;-71
2022/04/14 07:12:01;;;;;;;30.25;26.92;;;14.00;99.90;;;;;;5027779;28;20501;-71
2022/04/14 07:14:28;;;;;;;32.60;27.25;;;14.30;99.90;;;;;;5027820;28;20041;-71
2022/04/14 07:16:55;;;;;;;28.80;25.42;;;14.70;99.90;;;;;;5025420;28;20045;-71
2022/04/14 07:19:20;;;;;;;28.60;25.17;;;15.20;99.90;;;;;;5029457;28;20029;-71
2022/04/14 07:21:46;;;;;;;26.52;23.73;;;15.70;99.90;;;;;;5029644;28;20046;-71
2022/04/14 07:24:12;;;;;;;28.52;23.83;;;16.20;99.90;;;;;;5029087;28;20046;-71
2022/04/14 07:26:38;;;;;;;27.33;23.52;;;16.70;99.90;;;;;;5029311;28;20174;-71
2022/04/14 07:29:04;;;;;;;25.67;21.90;;;17.10;99.90;;;;;;5028729;28;20539;-71
2022/04/14 07:31:31;;;;;;;25.75;23.05;;;17.50;99.90;;;;;;5028394;28;20053;-71
2022/04/14 07:33:59;;;;;;;23.67;20.27;;;17.60;99.90;;;;;;5029663;28;20049;-71
2022/04/14 07:36:25;;;;;;;21.48;19.13;;;17.90;99.90;;;;;;5028816;28;20041;-72
2022/04/14 07:38:51;;;;;;;22.00;19.73;;;18.10;99.90;;;;;;5027461;28;20046;-72
2022/04/14 07:41:17;;;;;;;22.80;18.15;;;18.20;99.90;;;;;;5029186;28;20052;-72
2022/04/14 07:43:43;;;;;;;19.50;17.40;;;18.10;99.40;;;;;;5027836;28;21211;-72
2022/04/14 07:46:09;;;;;;;19.35;17.23;;;18.30;98.90;;;;;;5026092;28;20545;-72
2022/04/14 07:48:35;;;;;;;16.90;14.60;;;18.70;98.50;;;;;;5029295;28;20128;-71
2022/04/14 07:51:01;;;;;;;17.15;15.07;;;19.00;96.60;;;;;;5028917;28;20116;-71
2022/04/14 07:53:27;;;;;;;15.82;14.23;;;19.10;95.60;;;;;;5028470;28;20060;-71
2022/04/14 07:55:53;;;;;;;13.23;11.93;;;19.40;94.90;;;;;;5028734;28;20104;-71
2022/04/14 07:58:20;;;;;;;14.55;11.63;;;19.70;93.90;;;;;;5028308;28;20124;-71
2022/04/14 08:00:47;;;;;;;14.23;11.15;;;19.90;93.20;;;;;;5028974;28;20033;-71
2022/04/14 08:03:13;;;;;;;12.10;10.85;;;19.90;92.20;;;;;;5029541;28;20044;-71
2022/04/14 08:05:46;;;;;;;14.43;11.30;;;20.10;92.50;;;;;;5028432;28;20080;-71
2022/04/14 08:08:14;;;;;;;10.48;9.45;;;20.10;90.90;;;;;;5012683;28;20210;-71
2022/04/14 08:10:41;;;;;;;11.00;9.90;;;20.20;91.50;;;;;;5027522;28;20051;-71
2022/04/14 08:13:07;;;;;;;11.00;9.90;;;20.30;90.50;;;;;;5028193;28;20033;-71
2022/04/14 08:15:33;;;;;;;11.90;10.45;;;20.50;89.90;;;;;;5028365;28;20041;-71
2022/04/14 08:18:00;;;;;;;11.05;9.85;;;20.80;88.90;;;;;;5028436;28;20041;-71
2022/04/14 08:20:27;;;;;;;11.18;9.93;;;21.10;86.10;;;;;;5027875;28;20077;-71
2022/04/14 08:22:54;;;;;;;9.50;8.63;;;21.50;84.20;;;;;;5028238;28;20045;-71
2022/04/14 08:25:39;;;;;;;7.15;6.55;;;21.80;80.80;;;;;;5011488;28;20498;-71
2022/04/14 08:28:06;;;;;;;8.93;8.02;;;22.00;74.00;;;;;;5026451;28;20086;-71
2022/04/14 08:30:34;;;;;;;9.73;8.80;;;22.20;76.80;;;;;;5027772;28;20057;-71
2022/04/14 08:33:05;;;;;;;9.45;8.55;;;22.30;74.30;;;;;;5028195;28;20163;-71
2022/04/14 08:35:33;;;;;;;11.48;10.32;;;22.40;73.90;;;;;;5026920;28;20029;-71
2022/04/14 08:38:02;;;;;;;11.38;10.25;;;22.50;72.50;;;;;;5028362;28;20362;-71
2022/04/14 08:40:32;;;;;;;11.45;10.43;;;22.70;71.80;;;;;;5027683;28;20049;-71
2022/04/14 08:43:04;;;;;;;11.18;10.07;;;22.90;70.40;;;;;;5024565;28;20119;-72
2022/04/14 08:45:32;;;;;;;10.52;9.52;;;22.80;68.60;;;;;;5027049;28;20053;-72
2022/04/14 08:48:03;;;;;;;11.48;10.27;;;22.80;70.00;;;;;;5011996;28;20448;-72
2022/04/14 08:50:29;;;;;;;10.60;9.60;;;22.80;68.30;;;;;;5028136;28;20053;-72
2022/04/14 08:52:55;;;;;;;10.68;9.70;;;22.90;68.40;;;;;;5028865;28;20420;-72
2022/04/14 08:55:21;;;;;;;10.75;9.35;;;23.00;69.00;;;;;;5029171;28;20445;-72
2022/04/14 08:57:47;;;;;;;11.10;10.02;;;23.10;67.40;;;;;;5028966;28;20042;-72
2022/04/14 09:00:18;;;;;;;10.93;9.73;;;23.30;67.40;;;;;;5032866;28;20056;-72
2022/04/14 09:02:50;;;;;;;10.90;9.73;;;23.60;67.10;;;;;;5012400;28;20489;-72
2022/04/14 09:05:17;;;;;;;11.60;10.65;;;23.90;66.00;;;;;;5032090;28;20048;-72
2022/04/14 09:07:53;;;;;;;11.80;10.70;;;24.10;64.40;;;;;;5032188;28;20042;-72
2022/04/14 09:10:19;;;;;;;12.40;11.23;;;24.30;61.80;;;;;;5029597;28;20489;-72
2022/04/14 09:12:49;;;;;;;12.60;11.32;;;24.10;62.10;;;;;;5030973;28;20077;-72
2022/04/14 09:15:16;;;;;;;11.48;10.57;;;24.20;63.20;;;;;;5030203;28;20045;-72
2022/04/14 09:17:42;;;;;;;10.50;9.55;;;24.30;62.30;;;;;;5030304;28;20045;-72
2022/04/14 09:20:31;;;;;;;11.43;10.20;;;24.50;61.40;;;;;;5031820;28;20076;-72
2022/04/14 09:23:13;;;;;;;11.00;9.93;;;24.60;60.30;;;;;;5027962;28;20049;-72
2022/04/14 09:25:39;;;;;;;11.88;10.68;;;24.60;60.00;;;;;;5025996;28;20235;-72
2022/04/14 09:28:17;;;;;;;11.38;10.38;;;24.50;59.60;;;;;;5028241;28;20041;-72
2022/04/14 09:31:03;;;;;;;11.20;10.00;;;24.50;59.90;;;;;;5040344;28;20474;-73
2022/04/14 09:33:34;;;;;;;11.15;9.73;;;24.60;59.20;;;;;;5027067;28;20043;-72
2022/04/14 09:36:14;;;;;;;9.75;8.95;;;24.40;60.10;;;;;;5025601;28;20049;-72
2022/04/14 09:38:58;;;;;;;11.25;10.00;;;24.10;58.60;;;;;;5027045;28;20388;-72
2022/04/14 09:41:29;;;;;;;10.48;9.48;;;24.00;58.40;;;;;;5026930;28;20147;-72
2022/04/14 09:43:57;;;;;;;10.68;9.68;;;24.00;60.30;;;;;;5027024;28;20053;-72
2022/04/14 09:46:23;;;;;;;12.30;11.13;;;24.00;60.60;;;;;;5025456;28;20037;-72
2022/04/14 09:49:02;;;;;;;11.38;10.38;;;24.00;59.90;;;;;;5029043;28;20041;-73
2022/04/14 09:51:29;;;;;;;11.65;10.57;;;23.90;58.70;;;;;;5026861;28;20061;-73
2022/04/14 09:54:05;;;;;;;11.68;10.48;;;24.00;60.80;;;;;;5041089;28;20052;-73
2022/04/14 09:57:00;;;;;;;10.85;9.85;;;24.20;59.10;;;;;;5012985;28;20045;-72
2022/04/14 09:59:30;;;;;;;10.55;9.55;;;24.20;58.40;;;;;;5022398;28;20506;-73
2022/04/14 10:02:16;;;;;;;9.50;8.70;;;23.90;58.70;;;;;;5030250;28;20072;-73
2022/04/14 10:04:46;;;;;;;9.23;8.32;;;23.90;58.00;;;;;;5014384;28;20060;-73
2022/04/14 10:07:17;;;;;;;9.38;7.88;;;23.90;58.80;;;;;;5014286;28;20053;-73
2022/04/14 10:09:45;;;;;;;9.95;9.05;;;24.20;58.60;;;;;;5029381;28;20076;-73
2022/04/14 10:12:19;;;;;;;9.32;8.52;;;24.20;58.10;;;;;;5028205;28;20057;-73
2022/04/14 10:15:07;;;;;;;10.27;9.30;;;24.20;56.70;;;;;;5027939;28;20061;-73
2022/04/14 10:17:42;;;;;;;9.77;8.88;;;23.80;58.50;;;;;;5026928;28;20037;-72
2022/04/14 10:20:09;;;;;;;7.28;6.47;;;23.70;58.60;;;;;;5029599;28;20057;-72
2022/04/14 10:22:37;;;;;;;6.88;6.28;;;23.70;59.00;;;;;;5028754;28;20049;-72
2022/04/14 10:25:04;;;;;;;7.65;6.93;;;23.80;58.20;;;;;;5026605;28;20060;-72
2022/04/14 10:27:33;;;;;;;5.50;4.97;;;23.90;58.30;;;;;;5028705;28;20132;-73
2022/04/14 10:29:59;;;;;;;6.55;5.47;;;23.80;57.70;;;;;;5031183;28;20048;-74
2022/04/14 10:32:26;;;;;;;5.50;4.13;;;23.80;56.40;;;;;;5029168;28;20132;-74
2022/04/14 10:34:52;;;;;;;5.53;4.35;;;23.60;57.40;;;;;;5028985;28;20045;-73
2022/04/14 10:37:36;;;;;;;6.70;3.88;;;23.40;57.20;;;;;;5029085;28;20049;-68
2022/04/14 10:40:02;;;;;;;4.65;4.03;;;23.10;56.60;;;;;;5032181;28;20038;-69
2022/04/14 10:42:29;;;;;;;6.32;4.88;;;22.70;58.30;;;;;;5030437;28;20045;-69
2022/04/14 10:44:56;;;;;;;5.10;4.40;;;22.60;59.50;;;;;;5031011;28;20087;-69
2022/04/14 10:47:43;;;;;;;6.18;4.72;;;22.60;58.40;;;;;;5031114;28;20033;-69
2022/04/14 10:50:32;;;;;;;5.95;4.43;;;22.60;57.90;;;;;;5032553;28;20064;-69
2022/04/14 10:53:21;;;;;;;4.63;3.55;;;22.80;57.00;;;;;;5028436;28;20473;-69
2022/04/14 10:55:49;;;;;;;6.25;4.45;;;22.70;56.40;;;;;;5025525;28;20053;-69
2022/04/14 10:58:26;;;;;;;4.55;3.85;;;22.60;58.80;;;;;;5029368;28;20146;-69
2022/04/14 11:00:54;;;;;;;4.97;3.70;;;22.80;57.00;;;;;;5029877;28;20120;-69
2022/04/14 11:03:20;;;;;;;5.72;4.43;;;22.90;56.70;;;;;;5030842;28;20041;-69
2022/04/14 11:05:50;;;;;;;5.10;4.22;;;22.70;56.40;;;;;;5027548;28;20049;-69
2022/04/14 11:08:24;;;;;;;7.80;5.50;;;22.40;57.60;;;;;;5030917;28;20033;-69
2022/04/14 11:11:05;;;;;;;;;;;21.80;59.60;;;;;;5029848;28;20042;-68
2022/04/14 11:13:52;;;;;;;5.28;4.40;;;21.40;60.30;;;;;;5030376;28;19920;-68
2022/04/14 11:16:44;;;;;;;4.13;3.67;;;21.50;61.30;;;;;;5028431;28;20053;-69
2022/04/14 11:19:19;;;;;;;4.32;3.63;;;21.70;60.50;;;;;;5025444;28;20049;-69
2022/04/14 11:22:08;;;;;;;4.40;3.15;;;22.00;61.50;;;;;;5025633;28;20067;-70
2022/04/14 11:24:36;;;;;;;5.45;3.90;;;22.00;60.30;;;;;;5028400;28;20095;-70
2022/04/14 11:27:20;;;;;;;5.35;3.40;;;21.90;60.90;;;;;;5028482;28;20124;-69
2022/04/14 11:29:49;;;;;;;4.93;2.72;;;22.10;59.60;;;;;;5027977;28;20050;-67
2022/04/14 11:32:33;;;;;;;4.60;2.45;;;21.80;58.00;;;;;;5021272;28;20049;-68
2022/04/14 11:35:13;;;;;;;4.60;2.72;;;21.70;57.80;;;;;;5024917;28;20045;-69
2022/04/14 11:37:49;;;;;;;4.68;2.85;;;21.90;59.40;;;;;;5026437;28;20140;-68
2022/04/14 11:40:23;;;;;;;4.90;2.85;;;21.80;58.50;;;;;;5026108;28;20096;-67
2022/04/14 11:42:54;;;;;;;6.45;3.53;;;21.20;58.90;;;;;;5025791;28;20076;-67
2022/04/14 11:45:25;;;;;;;6.13;3.50;;;21.00;60.80;;;;;;5023561;28;20049;-67
2022/04/14 11:47:54;;;;;;;7.90;4.30;;;20.60;59.70;;;;;;5028548;28;20051;-67
2022/04/14 11:50:24;;;;;;;4.78;3.63;;;19.90;61.40;;;;;;5028834;28;20033;-66
2022/04/14 11:52:58;;;;;;;6.75;3.90;;;19.60;63.30;;;;;;5032143;28;20111;-67
2022/04/14 11:55:34;;;;;;;;;;;19.80;64.00;;;;;;5024687;28;20532;-67
2022/04/14 11:58:07;;;;;;;5.93;2.50;;;20.50;64.90;;;;;;5027408;28;19927;-67
2022/04/14 12:00:43;;;;;;;4.93;2.55;;;21.40;60.70;;;;;;5026581;28;20042;-67
2022/04/14 12:03:08;;;;;;;3.10;2.15;;;21.70;58.10;;;;;;5025012;28;20059;-67
2022/04/14 12:05:34;;;;;;;5.95;2.72;;;21.40;57.80;;;;;;5026791;28;20034;-67
2022/04/14 12:08:11;;;;;;;4.90;2.30;;;21.10;59.40;;;;;;5028656;28;20064;-67
2022/04/14 12:10:37;;;;;;;7.72;1.95;;;21.00;58.80;;;;;;5027040;28;20098;-67
2022/04/14 12:13:07;;;;;;;4.55;1.58;;;20.90;60.00;;;;;;5024527;28;20036;-69
2022/04/14 12:15:34;;;;;;;4.63;1.98;;;21.20;59.30;;;;;;5024649;28;20057;-68
2022/04/14 12:18:08;;;;;;;5.63;2.10;;;21.40;59.80;;;;;;5025390;28;20030;-67
2022/04/14 12:20:40;;;;;;;3.00;1.65;;;21.50;58.90;;;;;;5026545;28;20034;-68
2022/04/14 12:23:09;;;;;;;5.93;2.33;;;22.00;58.40;;;;;;5027151;28;20116;-68
2022/04/14 12:25:36;;;;;;;6.55;2.78;;;22.30;58.30;;;;;;5025482;28;20056;-68
2022/04/14 12:28:03;;;;;;;5.00;2.72;;;22.50;57.60;;;;;;5026787;28;20038;-70
2022/04/14 12:30:30;;;;;;;3.38;2.20;;;22.50;56.90;;;;;;5023212;28;20385;-70
2022/04/14 12:33:06;;;;;;;3.50;1.92;;;21.90;57.60;;;;;;5025460;28;20498;-70
2022/04/14 12:35:37;;;;;;;5.72;2.70;;;22.30;57.30;;;;;;5032792;28;20045;-70
2022/04/14 12:38:14;;;;;;;4.32;2.45;;;22.20;56.50;;;;;;5032227;28;20049;-70
2022/04/14 12:40:57;;;;;;;4.00;1.40;;;22.10;57.10;;;;;;5030950;28;20029;-70